createdAt,value
2018-08-24T00:00:17.853Z,20.90
2018-08-24T00:04:21.575Z,20.90
2018-08-24T00:08:25.301Z,20.90
2018-08-24T00:12:28.976Z,20.90
2018-08-24T00:16:38.208Z,20.90
2018-08-24T00:20:41.916Z,20.90
2018-08-24T00:24:45.588Z,20.80
2018-08-24T00:28:49.299Z,20.80
2018-08-24T00:32:52.988Z,20.80
2018-08-24T00:36:56.697Z,20.80
2018-08-24T00:41:00.410Z,20.80
2018-08-24T00:45:04.309Z,20.80
2018-08-24T00:49:08.346Z,20.80
2018-08-24T00:53:12.109Z,20.80
2018-08-24T00:57:15.833Z,20.80
2018-08-24T01:01:19.530Z,20.80
2018-08-24T01:05:23.253Z,20.80
2018-08-24T01:09:26.950Z,20.80
2018-08-24T01:13:30.731Z,20.80
2018-08-24T01:17:39.782Z,20.80
2018-08-24T01:21:43.468Z,20.80
2018-08-24T01:25:47.311Z,20.80
2018-08-24T01:29:51.002Z,20.80
2018-08-24T01:33:54.758Z,20.90
2018-08-24T01:37:58.496Z,20.90
2018-08-24T01:42:02.275Z,20.90
2018-08-24T01:46:11.273Z,20.90
2018-08-24T01:50:15.124Z,20.90
2018-08-24T01:54:18.820Z,20.80
2018-08-24T01:58:22.496Z,20.80
2018-08-24T02:02:26.192Z,20.70
2018-08-24T02:06:29.845Z,20.70
2018-08-24T02:10:33.552Z,20.60
2018-08-24T02:14:41.373Z,20.60
2018-08-24T02:18:50.345Z,20.50
2018-08-24T02:22:59.736Z,20.50
2018-08-24T02:27:03.441Z,20.40
2018-08-24T02:31:07.173Z,20.40
2018-08-24T02:35:10.901Z,20.30
2018-08-24T02:39:16.850Z,20.30
2018-08-24T02:43:20.604Z,20.30
2018-08-24T02:47:24.253Z,20.20
2018-08-24T02:51:27.938Z,20.20
2018-08-24T02:55:31.639Z,20.10
2018-08-24T02:59:35.412Z,20.10
2018-08-24T03:03:39.081Z,20.10
2018-08-24T03:07:42.766Z,20.10
2018-08-24T03:11:46.469Z,20.10
2018-08-24T03:15:50.167Z,20.00
2018-08-24T03:19:53.907Z,20.00
2018-08-24T03:23:57.596Z,19.90
2018-08-24T03:28:01.286Z,19.90
2018-08-24T03:32:04.995Z,19.90
2018-08-24T03:36:08.833Z,19.80
2018-08-24T03:40:12.515Z,19.80
2018-08-24T03:44:16.208Z,19.70
2018-08-24T03:48:19.853Z,19.70
2018-08-24T03:52:23.558Z,19.60
2018-08-24T03:56:27.237Z,19.60
2018-08-24T04:00:30.925Z,19.50
2018-08-24T04:04:34.620Z,19.50
2018-08-24T04:08:38.272Z,19.40
2018-08-24T04:12:42.049Z,19.40
2018-08-24T04:16:50.980Z,19.40
2018-08-24T04:20:54.659Z,19.30
2018-08-24T04:24:58.343Z,19.30
2018-08-24T04:29:02.030Z,19.20
2018-08-24T04:33:05.748Z,19.10
2018-08-24T04:37:09.533Z,19.10
2018-08-24T04:41:13.255Z,18.90
2018-08-24T04:45:16.970Z,18.90
2018-08-24T04:49:20.641Z,18.80
2018-08-24T04:53:24.312Z,18.70
2018-08-24T04:57:27.985Z,18.60
2018-08-24T05:01:31.660Z,18.50
2018-08-24T05:05:35.370Z,18.40
2018-08-24T05:09:39.122Z,18.40
2018-08-24T05:13:42.804Z,18.30
2018-08-24T05:17:46.606Z,18.20
2018-08-24T05:21:53.257Z,18.20
2018-08-24T05:25:56.958Z,18.20
2018-08-24T05:30:00.605Z,18.20
2018-08-24T05:34:04.280Z,18.20
2018-08-24T05:38:08.088Z,18.20
2018-08-24T05:42:11.801Z,18.20
2018-08-24T05:46:15.508Z,18.20
2018-08-24T05:50:19.189Z,18.30
2018-08-24T05:54:22.888Z,18.30
2018-08-24T05:58:26.644Z,18.40
2018-08-24T06:02:30.402Z,18.40
2018-08-24T06:06:34.081Z,18.40
2018-08-24T06:10:37.769Z,18.50
2018-08-24T06:14:41.503Z,18.40
2018-08-24T06:18:45.235Z,18.40
2018-08-24T06:22:48.968Z,18.40
2018-08-24T06:26:52.675Z,18.50
2018-08-24T06:30:56.312Z,18.50
2018-08-24T06:35:00.006Z,18.50
2018-08-24T06:39:04.825Z,18.50
2018-08-24T06:43:08.520Z,18.50
2018-08-24T06:47:12.244Z,18.50
2018-08-24T06:51:16.574Z,18.60
2018-08-24T06:55:20.269Z,18.60
2018-08-24T06:59:23.939Z,18.60
2018-08-24T07:03:27.638Z,18.70
2018-08-24T07:07:31.356Z,18.70
2018-08-24T07:11:34.993Z,18.80
2018-08-24T07:15:38.751Z,18.90
2018-08-24T07:19:42.464Z,19.00
2018-08-24T07:23:46.208Z,19.10
2018-08-24T07:27:49.936Z,19.10
2018-08-24T07:31:53.595Z,19.20
2018-08-24T07:35:57.364Z,19.30
2018-08-24T07:40:01.020Z,19.30
2018-08-24T07:44:04.889Z,19.30
2018-08-24T07:48:08.629Z,19.30
2018-08-24T07:52:12.324Z,19.40
2018-08-24T07:56:16.057Z,19.40
2018-08-24T08:00:20.030Z,19.40
2018-08-24T08:04:23.704Z,19.50
2018-08-24T08:08:27.527Z,19.60
2018-08-24T08:12:31.249Z,19.60
2018-08-24T08:16:36.690Z,19.60
2018-08-24T08:20:40.385Z,19.70
2018-08-24T08:24:44.079Z,19.90
2018-08-24T08:28:47.808Z,19.90
2018-08-24T08:32:51.503Z,20.00
2018-08-24T08:36:55.201Z,20.00
2018-08-24T08:40:58.903Z,20.00
2018-08-24T08:45:02.604Z,20.00
2018-08-24T08:49:06.338Z,20.00
2018-08-24T08:53:09.997Z,20.00
2018-08-24T08:57:13.718Z,20.00
2018-08-24T09:01:17.412Z,20.00
2018-08-24T09:05:21.106Z,20.00
2018-08-24T09:09:24.819Z,20.00
2018-08-24T09:13:28.525Z,20.00
2018-08-24T09:17:37.585Z,19.90
2018-08-24T09:21:46.567Z,19.80
2018-08-24T09:25:55.539Z,19.70
2018-08-24T09:30:02.072Z,19.50
2018-08-24T09:34:06.112Z,19.40
2018-08-24T09:38:09.828Z,19.20
2018-08-24T09:42:13.540Z,19.10
2018-08-24T09:46:17.368Z,19.00
2018-08-24T09:50:26.520Z,18.90
2018-08-24T09:54:30.224Z,18.90
2018-08-24T09:58:33.936Z,18.80
2018-08-24T10:02:42.672Z,18.90
2018-08-24T10:06:51.795Z,18.90
2018-08-24T10:10:55.474Z,18.90
2018-08-24T10:14:59.192Z,18.90
2018-08-24T10:19:02.953Z,18.90
2018-08-24T10:23:06.765Z,19.00
2018-08-24T10:27:10.494Z,19.00
2018-08-24T10:31:14.191Z,19.10
2018-08-24T10:35:17.878Z,19.10
2018-08-24T10:39:21.784Z,19.20
2018-08-24T10:43:25.474Z,19.30
2018-08-24T10:47:29.199Z,19.40
2018-08-24T10:51:32.936Z,19.40
2018-08-24T10:55:36.680Z,19.50
2018-08-24T10:59:40.356Z,19.50
2018-08-24T11:03:44.071Z,19.60
2018-08-24T11:07:47.819Z,19.60
2018-08-24T11:11:51.474Z,19.60
2018-08-24T11:15:55.188Z,19.70
2018-08-24T11:19:58.850Z,19.80
2018-08-24T11:24:02.608Z,19.90
2018-08-24T11:28:06.392Z,19.90
2018-08-24T11:32:10.124Z,20.10
2018-08-24T11:36:13.916Z,20.20
2018-08-24T11:40:17.538Z,20.30
2018-08-24T11:44:21.340Z,20.40
2018-08-24T11:48:27.423Z,20.50
2018-08-24T11:52:31.117Z,20.70
2018-08-24T11:56:34.801Z,20.80
2018-08-24T12:00:38.517Z,20.80
2018-08-24T12:04:42.242Z,20.70
2018-08-24T12:08:45.953Z,20.80
2018-08-24T12:12:49.667Z,20.80
2018-08-24T12:16:53.650Z,20.90
2018-08-24T12:20:57.331Z,20.90
2018-08-24T12:25:01.027Z,21.00
2018-08-24T12:29:04.745Z,21.20
2018-08-24T12:33:08.435Z,21.20
2018-08-24T12:37:13.307Z,21.40
2018-08-24T12:41:17.064Z,21.50
2018-08-24T12:45:20.789Z,21.60
2018-08-24T12:49:24.552Z,21.60
2018-08-24T12:53:28.192Z,21.80
2018-08-24T12:57:31.972Z,22.00
2018-08-24T13:01:35.644Z,22.10
2018-08-24T13:05:39.345Z,22.20
2018-08-24T13:09:43.051Z,22.40
2018-08-24T13:13:46.764Z,22.60
2018-08-24T13:17:50.466Z,22.80
2018-08-24T13:21:54.155Z,22.80
2018-08-24T13:25:57.893Z,22.80
2018-08-24T13:30:01.597Z,22.80
2018-08-24T13:34:05.401Z,22.80
2018-08-24T13:38:09.117Z,22.80
2018-08-24T13:42:12.808Z,22.90
2018-08-24T13:46:20.142Z,23.00
2018-08-24T13:50:23.857Z,23.20
2018-08-24T13:54:27.578Z,23.30
2018-08-24T13:58:31.265Z,23.20
2018-08-24T14:02:35.063Z,23.30
2018-08-24T14:06:38.755Z,23.40
2018-08-24T14:10:42.491Z,23.50
2018-08-24T14:14:46.191Z,23.50
2018-08-24T14:18:49.905Z,23.50
2018-08-24T14:22:53.604Z,23.40
2018-08-24T14:26:57.354Z,23.40
2018-08-24T14:31:01.048Z,23.30
2018-08-24T14:35:04.793Z,23.20
2018-08-24T14:39:09.896Z,23.00
2018-08-24T14:43:13.609Z,23.00
2018-08-24T14:47:17.306Z,23.00
2018-08-24T14:51:21.015Z,23.00
2018-08-24T14:55:24.731Z,22.90
2018-08-24T14:59:28.435Z,22.90
2018-08-24T15:03:32.114Z,22.80
2018-08-24T15:07:35.808Z,22.70
2018-08-24T15:11:39.553Z,22.70
2018-08-24T15:15:43.273Z,22.80
2018-08-24T15:19:46.980Z,22.70
2018-08-24T15:23:50.663Z,22.70
2018-08-24T15:27:54.418Z,22.60
2018-08-24T15:31:58.121Z,22.50
2018-08-24T15:36:01.912Z,22.40
2018-08-24T15:40:06.478Z,22.40
2018-08-24T15:44:10.189Z,22.40
2018-08-24T15:48:13.899Z,22.40
2018-08-24T15:52:17.591Z,22.30
2018-08-24T15:56:21.300Z,22.10
2018-08-24T16:00:25.082Z,22.00
2018-08-24T16:04:28.783Z,21.80
2018-08-24T16:08:32.495Z,21.80
2018-08-24T16:12:36.329Z,21.70
2018-08-24T16:16:40.109Z,21.60
2018-08-24T16:20:43.789Z,21.40
2018-08-24T16:24:47.457Z,21.20
2018-08-24T16:28:51.270Z,21.10
2018-08-24T16:32:54.965Z,21.00
2018-08-24T16:36:58.692Z,21.00
2018-08-24T16:41:02.385Z,20.90
2018-08-24T16:45:06.114Z,20.80
2018-08-24T16:49:09.781Z,20.70
2018-08-24T16:53:13.467Z,20.60
2018-08-24T16:57:17.178Z,20.60
2018-08-24T17:01:20.970Z,20.50
2018-08-24T17:05:24.661Z,20.40
2018-08-24T17:09:28.473Z,20.40
2018-08-24T17:13:32.170Z,20.30
2018-08-24T17:17:35.974Z,20.20
2018-08-24T17:21:39.748Z,20.10
2018-08-24T17:25:43.486Z,20.00
2018-08-24T17:29:47.142Z,19.90
2018-08-24T17:33:50.857Z,19.80
2018-08-24T17:37:54.548Z,19.70
2018-08-24T17:41:58.331Z,19.70
2018-08-24T17:46:01.990Z,19.70
2018-08-24T17:50:06.112Z,19.60
2018-08-24T17:54:09.804Z,19.50
2018-08-24T17:58:13.620Z,19.50
2018-08-24T18:02:18.178Z,19.50
2018-08-24T18:06:21.897Z,19.40
2018-08-24T18:10:25.624Z,19.30
2018-08-24T18:14:29.314Z,19.20
2018-08-24T18:18:33.066Z,19.20
2018-08-24T18:22:36.776Z,19.10
2018-08-24T18:26:40.492Z,19.10
2018-08-24T18:30:44.179Z,19.00
2018-08-24T18:34:47.933Z,19.00
2018-08-24T18:38:51.606Z,18.90
2018-08-24T18:42:55.286Z,18.90
2018-08-24T18:46:58.973Z,18.80
2018-08-24T18:51:02.645Z,18.80
2018-08-24T18:55:06.986Z,18.70
2018-08-24T18:59:10.684Z,18.70
2018-08-24T19:03:14.955Z,18.60
2018-08-24T19:07:18.794Z,18.60
2018-08-24T19:11:27.873Z,18.50
2018-08-24T19:15:31.650Z,18.50
2018-08-24T19:19:40.705Z,18.50
2018-08-24T19:23:44.385Z,18.40
2018-08-24T19:27:53.537Z,18.40
2018-08-24T19:31:57.210Z,18.40
2018-08-24T19:36:00.916Z,18.40
2018-08-24T19:40:09.900Z,18.30
2018-08-24T19:44:13.693Z,18.30
2018-08-24T19:48:22.708Z,18.30
2018-08-24T19:52:26.474Z,18.20
2018-08-24T19:56:30.147Z,18.20
2018-08-24T20:00:33.883Z,18.20
2018-08-24T20:04:37.552Z,18.10
2018-08-24T20:08:46.609Z,18.10
2018-08-24T20:12:50.243Z,18.10
2018-08-24T20:16:59.233Z,18.00
2018-08-24T20:21:02.945Z,18.00
2018-08-24T20:25:06.808Z,18.00
2018-08-24T20:29:10.515Z,17.90
2018-08-24T20:33:14.152Z,17.90
2018-08-24T20:37:17.843Z,17.90
2018-08-24T20:41:21.566Z,17.80
2018-08-24T20:45:25.249Z,17.80
2018-08-24T20:49:28.938Z,17.80
2018-08-24T20:53:32.573Z,17.70
2018-08-24T20:57:36.298Z,17.70
2018-08-24T21:01:39.953Z,17.60
2018-08-24T21:05:43.647Z,17.60
2018-08-24T21:09:47.340Z,17.50
2018-08-24T21:13:50.987Z,17.50
2018-08-24T21:17:54.727Z,17.50
2018-08-24T21:21:58.433Z,17.40
2018-08-24T21:26:02.139Z,17.40
2018-08-24T21:30:06.277Z,17.40
2018-08-24T21:34:09.927Z,17.30
2018-08-24T21:38:13.591Z,17.30
2018-08-24T21:42:17.255Z,17.20
2018-08-24T21:46:20.932Z,17.20
2018-08-24T21:50:24.596Z,17.10
2018-08-24T21:54:28.268Z,17.10
2018-08-24T21:58:31.944Z,17.10
2018-08-24T22:02:42.708Z,17.10
2018-08-24T22:06:46.384Z,17.00
2018-08-24T22:10:50.055Z,17.00
2018-08-24T22:14:53.792Z,17.00
2018-08-24T22:18:57.454Z,17.00
2018-08-24T22:23:01.144Z,16.90
2018-08-24T22:27:04.944Z,16.80
2018-08-24T22:31:08.630Z,16.80
2018-08-24T22:35:12.367Z,16.80
2018-08-24T22:39:16.090Z,16.80
2018-08-24T22:43:25.076Z,16.70
2018-08-24T22:47:28.824Z,16.70
2018-08-24T22:51:32.514Z,16.60
2018-08-24T22:55:36.193Z,16.60
2018-08-24T22:59:39.893Z,16.50
2018-08-24T23:03:43.572Z,16.50
2018-08-24T23:07:47.309Z,16.40
2018-08-24T23:11:51.076Z,16.40
2018-08-24T23:15:54.746Z,16.30
2018-08-24T23:19:58.405Z,16.30
2018-08-24T23:24:02.103Z,16.20
2018-08-24T23:28:05.885Z,16.20
2018-08-24T23:32:09.541Z,16.20
2018-08-24T23:36:13.351Z,16.10
2018-08-24T23:40:16.988Z,16.20
2018-08-24T23:44:20.709Z,16.10
2018-08-24T23:48:24.404Z,16.10
2018-08-24T23:52:28.070Z,16.10
2018-08-24T23:56:31.735Z,16.10
